sensor_id;sensor_type;location;lat;lon;timestamp;pressure;altitude;pressure_sealevel;temperature
42119;BMP280;27783;42.782;23.274;2022-07-18T00:00:12;96195.63;;;23.79
42119;BMP280;27783;42.782;23.274;2022-07-18T00:02:38;96194.13;;;23.78
42119;BMP280;27783;42.782;23.274;2022-07-18T00:05:05;96183.06;;;23.76
42119;BMP280;27783;42.782;23.274;2022-07-18T00:07:39;96187.84;;;23.72
42119;BMP280;27783;42.782;23.274;2022-07-18T00:10:06;96192.94;;;23.70
42119;BMP280;27783;42.782;23.274;2022-07-18T00:12:32;96195.78;;;23.67
42119;BMP280;27783;42.782;23.274;2022-07-18T00:14:58;96196.22;;;23.65
42119;BMP280;27783;42.782;23.274;2022-07-18T00:17:24;96199.81;;;23.62
42119;BMP280;27783;42.782;23.274;2022-07-18T00:19:50;96198.78;;;23.60
42119;BMP280;27783;42.782;23.274;2022-07-18T00:22:16;96189.06;;;23.54
42119;BMP280;27783;42.782;23.274;2022-07-18T00:24:42;96195.31;;;23.51
42119;BMP280;27783;42.782;23.274;2022-07-18T00:27:08;96192.03;;;23.47
42119;BMP280;27783;42.782;23.274;2022-07-18T00:29:34;96195.31;;;23.42
42119;BMP280;27783;42.782;23.274;2022-07-18T00:32:05;96199.78;;;23.36
42119;BMP280;27783;42.782;23.274;2022-07-18T00:34:38;96198.75;;;23.34
42119;BMP280;27783;42.782;23.274;2022-07-18T00:37:04;96190.81;;;23.30
42119;BMP280;27783;42.782;23.274;2022-07-18T00:39:31;96188.69;;;23.25
42119;BMP280;27783;42.782;23.274;2022-07-18T00:41:57;96188.09;;;23.22
42119;BMP280;27783;42.782;23.274;2022-07-18T00:44:26;96189.84;;;23.16
42119;BMP280;27783;42.782;23.274;2022-07-18T00:46:58;96185.66;;;23.15
42119;BMP280;27783;42.782;23.274;2022-07-18T00:49:25;96183.84;;;23.12
42119;BMP280;27783;42.782;23.274;2022-07-18T00:51:51;96193.56;;;23.09
42119;BMP280;27783;42.782;23.274;2022-07-18T00:54:18;96198.66;;;23.07
42119;BMP280;27783;42.782;23.274;2022-07-18T00:56:45;96203.28;;;23.07
42119;BMP280;27783;42.782;23.274;2022-07-18T00:59:11;96204.91;;;23.05
42119;BMP280;27783;42.782;23.274;2022-07-18T01:01:37;96198.03;;;23.04
42119;BMP280;27783;42.782;23.274;2022-07-18T01:04:29;96197.72;;;23.02
42119;BMP280;27783;42.782;23.274;2022-07-18T01:06:56;96190.41;;;23.02
42119;BMP280;27783;42.782;23.274;2022-07-18T01:09:23;96197.41;;;23.00
42119;BMP280;27783;42.782;23.274;2022-07-18T01:11:49;96207.44;;;22.99
42119;BMP280;27783;42.782;23.274;2022-07-18T01:14:16;96197.13;;;22.98
42119;BMP280;27783;42.782;23.274;2022-07-18T01:16:42;96202.06;;;22.99
42119;BMP280;27783;42.782;23.274;2022-07-18T01:19:10;96192.19;;;22.96
42119;BMP280;27783;42.782;23.274;2022-07-18T01:21:37;96199.19;;;22.94
42119;BMP280;27783;42.782;23.274;2022-07-18T01:24:06;96190.81;;;22.92
42119;BMP280;27783;42.782;23.274;2022-07-18T01:26:31;96184.38;;;22.89
42119;BMP280;27783;42.782;23.274;2022-07-18T01:28:58;96190.22;;;22.88
42119;BMP280;27783;42.782;23.274;2022-07-18T01:31:23;96191.84;;;22.86
42119;BMP280;27783;42.782;23.274;2022-07-18T01:34:06;96195.41;;;22.83
42119;BMP280;27783;42.782;23.274;2022-07-18T01:36:32;96189.75;;;22.81
42119;BMP280;27783;42.782;23.274;2022-07-18T01:38:59;96189.88;;;22.77
42119;BMP280;27783;42.782;23.274;2022-07-18T01:41:24;96180.00;;;22.74
42119;BMP280;27783;42.782;23.274;2022-07-18T01:43:50;96184.31;;;22.72
42119;BMP280;27783;42.782;23.274;2022-07-18T01:46:16;96178.66;;;22.70
42119;BMP280;27783;42.782;23.274;2022-07-18T01:48:42;96179.81;;;22.69
42119;BMP280;27783;42.782;23.274;2022-07-18T01:51:09;96189.09;;;22.68
42119;BMP280;27783;42.782;23.274;2022-07-18T01:53:40;96192.09;;;22.70
42119;BMP280;27783;42.782;23.274;2022-07-18T01:56:07;96195.66;;;22.67
42119;BMP280;27783;42.782;23.274;2022-07-18T01:58:33;96198.91;;;22.62
42119;BMP280;27783;42.782;23.274;2022-07-18T02:00:59;96200.13;;;22.61
42119;BMP280;27783;42.782;23.274;2022-07-18T02:03:25;96199.78;;;22.59
42119;BMP280;27783;42.782;23.274;2022-07-18T02:05:52;96191.13;;;22.55
42119;BMP280;27783;42.782;23.274;2022-07-18T02:08:18;96183.81;;;22.56
42119;BMP280;27783;42.782;23.274;2022-07-18T02:10:44;96186.19;;;22.54
42119;BMP280;27783;42.782;23.274;2022-07-18T02:13:09;96182.47;;;22.52
42119;BMP280;27783;42.782;23.274;2022-07-18T02:15:35;96193.31;;;22.48
42119;BMP280;27783;42.782;23.274;2022-07-18T02:18:02;96203.72;;;22.46
42119;BMP280;27783;42.782;23.274;2022-07-18T02:20:27;96191.94;;;22.44
42119;BMP280;27783;42.782;23.274;2022-07-18T02:22:53;96192.81;;;22.41
42119;BMP280;27783;42.782;23.274;2022-07-18T02:25:19;96198.63;;;22.39
42119;BMP280;27783;42.782;23.274;2022-07-18T02:27:45;96208.31;;;22.37
42119;BMP280;27783;42.782;23.274;2022-07-18T02:30:12;96208.75;;;22.36
42119;BMP280;27783;42.782;23.274;2022-07-18T02:32:38;96216.94;;;22.32
42119;BMP280;27783;42.782;23.274;2022-07-18T02:35:06;96216.34;;;22.28
42119;BMP280;27783;42.782;23.274;2022-07-18T02:37:32;96216.34;;;22.28
42119;BMP280;27783;42.782;23.274;2022-07-18T02:39:58;96211.09;;;22.25
42119;BMP280;27783;42.782;23.274;2022-07-18T02:42:23;96215.38;;;22.22
42119;BMP280;27783;42.782;23.274;2022-07-18T02:44:50;96218.94;;;22.20
42119;BMP280;27783;42.782;23.274;2022-07-18T02:47:15;96219.81;;;22.17
42119;BMP280;27783;42.782;23.274;2022-07-18T02:49:40;96222.50;;;22.17
42119;BMP280;27783;42.782;23.274;2022-07-18T02:52:08;96219.94;;;22.13
42119;BMP280;27783;42.782;23.274;2022-07-18T02:54:43;96224.69;;;22.09
42119;BMP280;27783;42.782;23.274;2022-07-18T02:57:08;96232.03;;;22.09
42119;BMP280;27783;42.782;23.274;2022-07-18T02:59:35;96225.25;;;22.04
42119;BMP280;27783;42.782;23.274;2022-07-18T03:02:02;96230.00;;;22.01
42119;BMP280;27783;42.782;23.274;2022-07-18T03:04:29;96231.31;;;21.96
42119;BMP280;27783;42.782;23.274;2022-07-18T03:06:54;96237.88;;;21.95
42119;BMP280;27783;42.782;23.274;2022-07-18T03:09:21;96240.22;;;21.93
42119;BMP280;27783;42.782;23.274;2022-07-18T03:11:47;96235.75;;;21.90
42119;BMP280;27783;42.782;23.274;2022-07-18T03:14:14;96238.53;;;21.87
42119;BMP280;27783;42.782;23.274;2022-07-18T03:16:39;96244.03;;;21.84
42119;BMP280;27783;42.782;23.274;2022-07-18T03:19:05;96232.66;;;21.80
42119;BMP280;27783;42.782;23.274;2022-07-18T03:21:30;96244.91;;;21.81
42119;BMP280;27783;42.782;23.274;2022-07-18T03:23:56;96236.09;;;21.80
42119;BMP280;27783;42.782;23.274;2022-07-18T03:26:22;96241.13;;;21.78
42119;BMP280;27783;42.782;23.274;2022-07-18T03:28:48;96246.50;;;21.78
42119;BMP280;27783;42.782;23.274;2022-07-18T03:31:15;96243.06;;;21.78
42119;BMP280;27783;42.782;23.274;2022-07-18T03:33:41;96246.63;;;21.75
42119;BMP280;27783;42.782;23.274;2022-07-18T03:36:07;96230.53;;;21.75
42119;BMP280;27783;42.782;23.274;2022-07-18T03:38:32;96235.88;;;21.75
42119;BMP280;27783;42.782;23.274;2022-07-18T03:40:57;96233.19;;;21.75
42119;BMP280;27783;42.782;23.274;2022-07-18T03:43:24;96239.31;;;21.75
42119;BMP280;27783;42.782;23.274;2022-07-18T03:45:50;96247.69;;;21.77
42119;BMP280;27783;42.782;23.274;2022-07-18T03:48:16;96243.06;;;21.78
42119;BMP280;27783;42.782;23.274;2022-07-18T03:50:41;96256.50;;;21.78
42119;BMP280;27783;42.782;23.274;2022-07-18T03:53:08;96254.22;;;21.76
42119;BMP280;27783;42.782;23.274;2022-07-18T03:55:33;96259.94;;;21.78
42119;BMP280;27783;42.782;23.274;2022-07-18T03:57:59;96258.31;;;21.81
42119;BMP280;27783;42.782;23.274;2022-07-18T04:00:25;96257.16;;;21.82
42119;BMP280;27783;42.782;23.274;2022-07-18T04:02:50;96257.44;;;21.84
42119;BMP280;27783;42.782;23.274;2022-07-18T04:05:16;96261.94;;;21.87
42119;BMP280;27783;42.782;23.274;2022-07-18T04:07:42;96252.41;;;21.86
42119;BMP280;27783;42.782;23.274;2022-07-18T04:10:09;96251.22;;;21.87
42119;BMP280;27783;42.782;23.274;2022-07-18T04:12:53;96254.34;;;21.85
42119;BMP280;27783;42.782;23.274;2022-07-18T04:15:22;96247.06;;;21.86
42119;BMP280;27783;42.782;23.274;2022-07-18T04:17:48;96249.28;;;21.87
42119;BMP280;27783;42.782;23.274;2022-07-18T04:20:16;96241.69;;;21.86
42119;BMP280;27783;42.782;23.274;2022-07-18T04:22:56;96241.22;;;21.87
42119;BMP280;27783;42.782;23.274;2022-07-18T04:25:24;96236.06;;;21.92
42119;BMP280;27783;42.782;23.274;2022-07-18T04:27:50;96233.69;;;21.94
42119;BMP280;27783;42.782;23.274;2022-07-18T04:30:18;96239.81;;;21.95
42119;BMP280;27783;42.782;23.274;2022-07-18T04:32:44;96248.81;;;22.01
42119;BMP280;27783;42.782;23.274;2022-07-18T04:35:10;96245.34;;;22.00
42119;BMP280;27783;42.782;23.274;2022-07-18T04:37:41;96245.56;;;22.05
42119;BMP280;27783;42.782;23.274;2022-07-18T04:40:08;96238.56;;;22.08
42119;BMP280;27783;42.782;23.274;2022-07-18T04:42:35;96237.69;;;22.11
42119;BMP280;27783;42.782;23.274;2022-07-18T04:45:03;96241.44;;;22.13
42119;BMP280;27783;42.782;23.274;2022-07-18T04:47:36;96239.81;;;22.16
42119;BMP280;27783;42.782;23.274;2022-07-18T04:50:03;96238.88;;;22.10
42119;BMP280;27783;42.782;23.274;2022-07-18T04:52:38;96245.16;;;22.16
42119;BMP280;27783;42.782;23.274;2022-07-18T04:55:06;96243.44;;;22.21
42119;BMP280;27783;42.782;23.274;2022-07-18T04:57:32;96241.50;;;22.22
42119;BMP280;27783;42.782;23.274;2022-07-18T04:59:58;96241.63;;;22.19
42119;BMP280;27783;42.782;23.274;2022-07-18T05:02:24;96245.56;;;22.26
42119;BMP280;27783;42.782;23.274;2022-07-18T05:04:50;96238.41;;;22.32
42119;BMP280;27783;42.782;23.274;2022-07-18T05:07:16;96244.13;;;22.34
42119;BMP280;27783;42.782;23.274;2022-07-18T05:09:41;96243.47;;;21.76
42119;BMP280;27783;42.782;23.274;2022-07-18T05:12:07;96242.56;;;21.83
42119;BMP280;27783;42.782;23.274;2022-07-18T05:14:34;96239.31;;;22.29
42119;BMP280;27783;42.782;23.274;2022-07-18T05:17:00;96241.69;;;22.27
42119;BMP280;27783;42.782;23.274;2022-07-18T05:19:26;96236.34;;;22.36
42119;BMP280;27783;42.782;23.274;2022-07-18T05:21:52;96239.44;;;22.26
42119;BMP280;27783;42.782;23.274;2022-07-18T05:24:18;96239.56;;;22.22
42119;BMP280;27783;42.782;23.274;2022-07-18T05:26:44;96236.00;;;22.25
42119;BMP280;27783;42.782;23.274;2022-07-18T05:29:10;96237.56;;;22.35
42119;BMP280;27783;42.782;23.274;2022-07-18T05:31:35;96247.69;;;22.31
42119;BMP280;27783;42.782;23.274;2022-07-18T05:34:00;96240.13;;;22.38
42119;BMP280;27783;42.782;23.274;2022-07-18T05:36:27;96236.72;;;22.47
42119;BMP280;27783;42.782;23.274;2022-07-18T05:38:52;96240.69;;;22.55
42119;BMP280;27783;42.782;23.274;2022-07-18T05:41:18;96237.88;;;22.58
42119;BMP280;27783;42.782;23.274;2022-07-18T05:43:44;96241.50;;;22.64
42119;BMP280;27783;42.782;23.274;2022-07-18T05:46:09;96238.53;;;22.71
42119;BMP280;27783;42.782;23.274;2022-07-18T05:48:35;96238.41;;;22.74
42119;BMP280;27783;42.782;23.274;2022-07-18T05:51:00;96244.97;;;22.73
42119;BMP280;27783;42.782;23.274;2022-07-18T05:53:29;96244.28;;;22.81
42119;BMP280;27783;42.782;23.274;2022-07-18T05:55:54;96235.31;;;22.84
42119;BMP280;27783;42.782;23.274;2022-07-18T05:58:20;96238.75;;;22.85
42119;BMP280;27783;42.782;23.274;2022-07-18T06:00:46;96240.09;;;22.89
42119;BMP280;27783;42.782;23.274;2022-07-18T06:03:11;96232.75;;;22.81
42119;BMP280;27783;42.782;23.274;2022-07-18T06:05:37;96237.03;;;22.70
42119;BMP280;27783;42.782;23.274;2022-07-18T06:08:06;96238.69;;;22.76
42119;BMP280;27783;42.782;23.274;2022-07-18T06:10:32;96232.75;;;22.81
42119;BMP280;27783;42.782;23.274;2022-07-18T06:12:58;96234.25;;;22.82
42119;BMP280;27783;42.782;23.274;2022-07-18T06:15:24;96232.38;;;22.91
42119;BMP280;27783;42.782;23.274;2022-07-18T06:17:50;96233.16;;;23.09
42119;BMP280;27783;42.782;23.274;2022-07-18T06:20:18;96232.00;;;23.19
42119;BMP280;27783;42.782;23.274;2022-07-18T06:22:45;96238.94;;;23.28
42119;BMP280;27783;42.782;23.274;2022-07-18T06:25:11;96239.09;;;23.34
42119;BMP280;27783;42.782;23.274;2022-07-18T06:27:37;96230.00;;;23.40
42119;BMP280;27783;42.782;23.274;2022-07-18T06:30:04;96230.75;;;23.49
42119;BMP280;27783;42.782;23.274;2022-07-18T06:32:32;96224.91;;;23.51
42119;BMP280;27783;42.782;23.274;2022-07-18T06:34:59;96227.03;;;23.47
42119;BMP280;27783;42.782;23.274;2022-07-18T06:37:25;96222.25;;;23.59
42119;BMP280;27783;42.782;23.274;2022-07-18T06:39:52;96221.34;;;23.62
42119;BMP280;27783;42.782;23.274;2022-07-18T06:42:17;96213.13;;;23.66
42119;BMP280;27783;42.782;23.274;2022-07-18T06:44:43;96219.88;;;23.70
42119;BMP280;27783;42.782;23.274;2022-07-18T06:47:10;96207.44;;;23.72
42119;BMP280;27783;42.782;23.274;2022-07-18T06:49:35;96215.38;;;23.76
42119;BMP280;27783;42.782;23.274;2022-07-18T06:52:02;96215.25;;;23.88
42119;BMP280;27783;42.782;23.274;2022-07-18T06:54:28;96212.41;;;24.00
42119;BMP280;27783;42.782;23.274;2022-07-18T06:56:56;96213.59;;;24.08
42119;BMP280;27783;42.782;23.274;2022-07-18T06:59:22;96214.63;;;24.10
42119;BMP280;27783;42.782;23.274;2022-07-18T07:01:48;96204.47;;;24.14
42119;BMP280;27783;42.782;23.274;2022-07-18T07:04:14;96202.22;;;24.13
42119;BMP280;27783;42.782;23.274;2022-07-18T07:06:39;96203.13;;;24.19
42119;BMP280;27783;42.782;23.274;2022-07-18T07:09:05;96202.22;;;24.22
42119;BMP280;27783;42.782;23.274;2022-07-18T07:11:32;96206.53;;;24.28
42119;BMP280;27783;42.782;23.274;2022-07-18T07:13:57;96207.13;;;24.32
42119;BMP280;27783;42.782;23.274;2022-07-18T07:16:23;96205.47;;;24.34
42119;BMP280;27783;42.782;23.274;2022-07-18T07:18:48;96198.59;;;24.42
42119;BMP280;27783;42.782;23.274;2022-07-18T07:21:14;96206.03;;;24.47
42119;BMP280;27783;42.782;23.274;2022-07-18T07:23:39;96191.66;;;24.50
42119;BMP280;27783;42.782;23.274;2022-07-18T07:26:07;96194.69;;;24.52
42119;BMP280;27783;42.782;23.274;2022-07-18T07:28:34;96197.03;;;24.50
42119;BMP280;27783;42.782;23.274;2022-07-18T07:31:01;96194.53;;;24.55
42119;BMP280;27783;42.782;23.274;2022-07-18T07:33:27;96192.72;;;24.61
42119;BMP280;27783;42.782;23.274;2022-07-18T07:35:54;96186.25;;;24.67
42119;BMP280;27783;42.782;23.274;2022-07-18T07:38:20;96190.56;;;24.73
42119;BMP280;27783;42.782;23.274;2022-07-18T07:40:48;96189.66;;;24.76
42119;BMP280;27783;42.782;23.274;2022-07-18T07:43:15;96188.56;;;24.83
42119;BMP280;27783;42.782;23.274;2022-07-18T07:45:58;96194.56;;;24.87
42119;BMP280;27783;42.782;23.274;2022-07-18T07:48:25;96191.69;;;24.90
42119;BMP280;27783;42.782;23.274;2022-07-18T07:50:51;96194.97;;;24.94
42119;BMP280;27783;42.782;23.274;2022-07-18T07:53:17;96183.25;;;24.97
42119;BMP280;27783;42.782;23.274;2022-07-18T07:55:42;96192.97;;;25.03
42119;BMP280;27783;42.782;23.274;2022-07-18T07:58:08;96188.91;;;25.07
42119;BMP280;27783;42.782;23.274;2022-07-18T08:00:35;96189.78;;;25.13
42119;BMP280;27783;42.782;23.274;2022-07-18T08:03:03;96191.59;;;25.16
42119;BMP280;27783;42.782;23.274;2022-07-18T08:05:33;96186.94;;;25.17
42119;BMP280;27783;42.782;23.274;2022-07-18T08:07:59;96188.72;;;25.20
42119;BMP280;27783;42.782;23.274;2022-07-18T08:10:27;96185.41;;;25.24
42119;BMP280;27783;42.782;23.274;2022-07-18T08:12:52;96191.06;;;25.26
42119;BMP280;27783;42.782;23.274;2022-07-18T08:15:19;96180.59;;;25.28
42119;BMP280;27783;42.782;23.274;2022-07-18T08:17:46;96181.63;;;25.31
42119;BMP280;27783;42.782;23.274;2022-07-18T08:20:13;96184.41;;;25.36
42119;BMP280;27783;42.782;23.274;2022-07-18T08:23:06;96184.72;;;25.38
42119;BMP280;27783;42.782;23.274;2022-07-18T08:25:50;96181.97;;;25.47
42119;BMP280;27783;42.782;23.274;2022-07-18T08:28:16;96176.81;;;25.49
42119;BMP280;27783;42.782;23.274;2022-07-18T08:30:44;96184.47;;;25.50
42119;BMP280;27783;42.782;23.274;2022-07-18T08:33:10;96182.19;;;25.57
42119;BMP280;27783;42.782;23.274;2022-07-18T08:35:37;96181.53;;;25.62
42119;BMP280;27783;42.782;23.274;2022-07-18T08:38:03;96183.31;;;25.65
42119;BMP280;27783;42.782;23.274;2022-07-18T08:40:30;96183.72;;;25.73
42119;BMP280;27783;42.782;23.274;2022-07-18T08:42:57;96178.59;;;25.74
42119;BMP280;27783;42.782;23.274;2022-07-18T08:45:24;96168.38;;;25.78
42119;BMP280;27783;42.782;23.274;2022-07-18T08:47:51;96180.78;;;25.85
42119;BMP280;27783;42.782;23.274;2022-07-18T08:50:25;96178.94;;;25.91
42119;BMP280;27783;42.782;23.274;2022-07-18T08:52:51;96179.78;;;25.96
42119;BMP280;27783;42.782;23.274;2022-07-18T08:55:18;96173.28;;;26.03
42119;BMP280;27783;42.782;23.274;2022-07-18T08:57:44;96169.19;;;26.07
42119;BMP280;27783;42.782;23.274;2022-07-18T09:00:10;96167.22;;;26.07
42119;BMP280;27783;42.782;23.274;2022-07-18T09:02:38;96168.25;;;26.10
42119;BMP280;27783;42.782;23.274;2022-07-18T09:05:05;96170.97;;;26.10
42119;BMP280;27783;42.782;23.274;2022-07-18T09:07:33;96164.88;;;26.15
42119;BMP280;27783;42.782;23.274;2022-07-18T09:10:05;96172.38;;;26.20
42119;BMP280;27783;42.782;23.274;2022-07-18T09:12:31;96172.94;;;26.24
42119;BMP280;27783;42.782;23.274;2022-07-18T09:15:05;96159.03;;;26.30
42119;BMP280;27783;42.782;23.274;2022-07-18T09:17:34;96161.56;;;26.34
42119;BMP280;27783;42.782;23.274;2022-07-18T09:20:13;96153.81;;;26.41
42119;BMP280;27783;42.782;23.274;2022-07-18T09:22:45;96161.28;;;26.46
42119;BMP280;27783;42.782;23.274;2022-07-18T09:25:21;96164.75;;;26.46
42119;BMP280;27783;42.782;23.274;2022-07-18T09:27:47;96159.97;;;26.56
42119;BMP280;27783;42.782;23.274;2022-07-18T09:30:28;96162.00;;;26.60
42119;BMP280;27783;42.782;23.274;2022-07-18T09:33:05;96163.41;;;26.70
42119;BMP280;27783;42.782;23.274;2022-07-18T09:35:32;96163.69;;;26.72
42119;BMP280;27783;42.782;23.274;2022-07-18T09:40:41;96162.28;;;26.76
42119;BMP280;27783;42.782;23.274;2022-07-18T09:43:10;96159.31;;;26.74
42119;BMP280;27783;42.782;23.274;2022-07-18T09:45:48;96155.38;;;26.90
42119;BMP280;27783;42.782;23.274;2022-07-18T09:48:17;96158.06;;;26.90
42119;BMP280;27783;42.782;23.274;2022-07-18T09:53:40;96146.31;;;26.92
42119;BMP280;27783;42.782;23.274;2022-07-18T09:56:11;96154.69;;;26.94
42119;BMP280;27783;42.782;23.274;2022-07-18T09:58:58;96149.94;;;27.04
42119;BMP280;27783;42.782;23.274;2022-07-18T10:01:23;96147.78;;;27.08
42119;BMP280;27783;42.782;23.274;2022-07-18T10:03:50;96148.06;;;27.09
42119;BMP280;27783;42.782;23.274;2022-07-18T10:06:17;96150.53;;;27.13
42119;BMP280;27783;42.782;23.274;2022-07-18T10:08:45;96139.06;;;27.18
42119;BMP280;27783;42.782;23.274;2022-07-18T10:11:11;96141.56;;;27.21
42119;BMP280;27783;42.782;23.274;2022-07-18T10:13:38;96142.88;;;27.25
42119;BMP280;27783;42.782;23.274;2022-07-18T10:16:04;96139.22;;;27.28
42119;BMP280;27783;42.782;23.274;2022-07-18T10:18:31;96136.97;;;27.27
42119;BMP280;27783;42.782;23.274;2022-07-18T10:20:58;96127.28;;;27.21
42119;BMP280;27783;42.782;23.274;2022-07-18T10:23:31;96135.81;;;27.33
42119;BMP280;27783;42.782;23.274;2022-07-18T10:26:26;96125.72;;;27.53
42119;BMP280;27783;42.782;23.274;2022-07-18T10:31:21;96131.31;;;27.64
42119;BMP280;27783;42.782;23.274;2022-07-18T10:33:50;96121.59;;;27.77
42119;BMP280;27783;42.782;23.274;2022-07-18T10:36:20;96116.00;;;27.86
42119;BMP280;27783;42.782;23.274;2022-07-18T11:00:31;96096.25;;;28.05
42119;BMP280;27783;42.782;23.274;2022-07-18T11:03:06;96102.94;;;28.09
42119;BMP280;27783;42.782;23.274;2022-07-18T11:05:34;96091.31;;;28.03
42119;BMP280;27783;42.782;23.274;2022-07-18T11:16:22;96083.47;;;28.35
42119;BMP280;27783;42.782;23.274;2022-07-18T11:21:33;96087.59;;;28.26
42119;BMP280;27783;42.782;23.274;2022-07-18T11:24:06;96078.69;;;28.50
42119;BMP280;27783;42.782;23.274;2022-07-18T11:26:34;96078.53;;;28.64
42119;BMP280;27783;42.782;23.274;2022-07-18T11:29:01;96085.53;;;28.70
42119;BMP280;27783;42.782;23.274;2022-07-18T11:31:29;96074.72;;;28.81
42119;BMP280;27783;42.782;23.274;2022-07-18T11:34:02;96069.84;;;28.90
42119;BMP280;27783;42.782;23.274;2022-07-18T11:36:48;96077.56;;;29.02
42119;BMP280;27783;42.782;23.274;2022-07-18T11:39:27;96077.88;;;29.15
42119;BMP280;27783;42.782;23.274;2022-07-18T11:41:55;96075.75;;;29.29
42119;BMP280;27783;42.782;23.274;2022-07-18T11:44:20;96068.81;;;29.28
42119;BMP280;27783;42.782;23.274;2022-07-18T11:47:09;96059.22;;;29.38
42119;BMP280;27783;42.782;23.274;2022-07-18T11:49:54;96066.91;;;29.50
42119;BMP280;27783;42.782;23.274;2022-07-18T11:52:19;96063.22;;;29.53
42119;BMP280;27783;42.782;23.274;2022-07-18T11:54:46;96064.00;;;29.70
42119;BMP280;27783;42.782;23.274;2022-07-18T11:57:11;96056.41;;;29.79
42119;BMP280;27783;42.782;23.274;2022-07-18T11:59:40;96057.16;;;29.90
42119;BMP280;27783;42.782;23.274;2022-07-18T12:02:08;96056.94;;;29.99
42119;BMP280;27783;42.782;23.274;2022-07-18T12:04:42;96056.19;;;30.04
42119;BMP280;27783;42.782;23.274;2022-07-18T12:07:18;96054.22;;;30.10
42119;BMP280;27783;42.782;23.274;2022-07-18T12:09:44;96052.50;;;30.12
42119;BMP280;27783;42.782;23.274;2022-07-18T12:12:14;96058.94;;;30.09
42119;BMP280;27783;42.782;23.274;2022-07-18T12:14:41;96056.47;;;30.06
42119;BMP280;27783;42.782;23.274;2022-07-18T12:17:08;96054.72;;;30.13
42119;BMP280;27783;42.782;23.274;2022-07-18T12:19:36;96049.78;;;30.23
42119;BMP280;27783;42.782;23.274;2022-07-18T12:22:05;96051.75;;;30.27
42119;BMP280;27783;42.782;23.274;2022-07-18T12:32:53;96048.03;;;30.73
42119;BMP280;27783;42.782;23.274;2022-07-18T12:35:40;96045.31;;;30.89
42119;BMP280;27783;42.782;23.274;2022-07-18T12:38:17;96035.16;;;30.90
42119;BMP280;27783;42.782;23.274;2022-07-18T12:40:51;96036.88;;;30.93
42119;BMP280;27783;42.782;23.274;2022-07-18T12:46:18;96041.75;;;32.15
42119;BMP280;27783;42.782;23.274;2022-07-18T12:48:43;96041.50;;;32.13
42119;BMP280;27783;42.782;23.274;2022-07-18T12:51:10;96037.66;;;34.21
42119;BMP280;27783;42.782;23.274;2022-07-18T12:53:39;96025.06;;;35.30
42119;BMP280;27783;42.782;23.274;2022-07-18T12:56:06;96045.03;;;35.88
42119;BMP280;27783;42.782;23.274;2022-07-18T12:58:32;96033.00;;;36.43
42119;BMP280;27783;42.782;23.274;2022-07-18T13:00:58;96023.59;;;36.99
42119;BMP280;27783;42.782;23.274;2022-07-18T13:03:24;96032.53;;;37.46
42119;BMP280;27783;42.782;23.274;2022-07-18T13:05:50;96030.84;;;37.78
42119;BMP280;27783;42.782;23.274;2022-07-18T13:08:15;96026.00;;;38.13
42119;BMP280;27783;42.782;23.274;2022-07-18T13:10:46;96027.34;;;38.34
42119;BMP280;27783;42.782;23.274;2022-07-18T13:13:11;96024.09;;;38.64
42119;BMP280;27783;42.782;23.274;2022-07-18T13:15:37;96026.31;;;38.88
42119;BMP280;27783;42.782;23.274;2022-07-18T13:18:04;96019.88;;;39.00
42119;BMP280;27783;42.782;23.274;2022-07-18T13:20:31;96018.00;;;39.09
42119;BMP280;27783;42.782;23.274;2022-07-18T13:22:58;96013.03;;;39.22
42119;BMP280;27783;42.782;23.274;2022-07-18T13:25:30;96022.06;;;39.08
42119;BMP280;27783;42.782;23.274;2022-07-18T13:27:58;96022.19;;;39.25
42119;BMP280;27783;42.782;23.274;2022-07-18T13:30:25;96016.66;;;39.32
42119;BMP280;27783;42.782;23.274;2022-07-18T13:32:51;96017.59;;;39.42
42119;BMP280;27783;42.782;23.274;2022-07-18T13:35:17;96010.25;;;39.44
42119;BMP280;27783;42.782;23.274;2022-07-18T13:37:43;96012.19;;;39.58
42119;BMP280;27783;42.782;23.274;2022-07-18T13:40:11;96009.19;;;39.78
42119;BMP280;27783;42.782;23.274;2022-07-18T13:42:38;96010.00;;;40.03
42119;BMP280;27783;42.782;23.274;2022-07-18T13:45:05;96000.94;;;40.09
42119;BMP280;27783;42.782;23.274;2022-07-18T13:47:31;96013.31;;;40.01
42119;BMP280;27783;42.782;23.274;2022-07-18T13:49:57;96008.72;;;40.04
42119;BMP280;27783;42.782;23.274;2022-07-18T13:52:22;96010.50;;;40.08
42119;BMP280;27783;42.782;23.274;2022-07-18T13:54:49;96005.97;;;40.27
42119;BMP280;27783;42.782;23.274;2022-07-18T13:57:16;96008.25;;;40.14
42119;BMP280;27783;42.782;23.274;2022-07-18T13:59:43;96007.34;;;40.19
42119;BMP280;27783;42.782;23.274;2022-07-18T14:02:09;96009.47;;;39.97
42119;BMP280;27783;42.782;23.274;2022-07-18T14:04:43;96007.75;;;40.40
42119;BMP280;27783;42.782;23.274;2022-07-18T14:07:11;95996.69;;;40.63
42119;BMP280;27783;42.782;23.274;2022-07-18T14:09:38;96005.59;;;40.62
42119;BMP280;27783;42.782;23.274;2022-07-18T14:12:07;95995.06;;;40.84
42119;BMP280;27783;42.782;23.274;2022-07-18T14:14:33;95999.09;;;40.83
42119;BMP280;27783;42.782;23.274;2022-07-18T14:17:00;96004.09;;;40.85
42119;BMP280;27783;42.782;23.274;2022-07-18T14:19:27;96005.72;;;41.11
42119;BMP280;27783;42.782;23.274;2022-07-18T14:21:55;96000.09;;;41.02
42119;BMP280;27783;42.782;23.274;2022-07-18T14:24:35;95995.78;;;41.25
42119;BMP280;27783;42.782;23.274;2022-07-18T14:27:02;96004.94;;;41.35
42119;BMP280;27783;42.782;23.274;2022-07-18T14:29:27;95985.16;;;41.38
42119;BMP280;27783;42.782;23.274;2022-07-18T14:31:52;95998.16;;;41.28
42119;BMP280;27783;42.782;23.274;2022-07-18T14:34:18;96003.50;;;41.26
42119;BMP280;27783;42.782;23.274;2022-07-18T14:36:44;95991.16;;;41.44
42119;BMP280;27783;42.782;23.274;2022-07-18T14:39:10;95993.59;;;41.40
42119;BMP280;27783;42.782;23.274;2022-07-18T14:41:37;95991.22;;;41.53
42119;BMP280;27783;42.782;23.274;2022-07-18T14:44:03;95985.75;;;41.62
42119;BMP280;27783;42.782;23.274;2022-07-18T14:46:31;95986.44;;;41.54
42119;BMP280;27783;42.782;23.274;2022-07-18T14:48:56;95986.19;;;41.42
42119;BMP280;27783;42.782;23.274;2022-07-18T14:51:22;95988.63;;;41.55